createdAt,value
2018-06-07T00:00:10.968Z,40.60
2018-06-07T00:02:37.935Z,40.80
2018-06-07T00:05:04.872Z,40.90
2018-06-07T00:07:31.795Z,40.90
2018-06-07T00:09:58.751Z,41.30
2018-06-07T00:12:25.662Z,41.50
2018-06-07T00:14:52.576Z,41.40
2018-06-07T00:17:19.559Z,41.30
2018-06-07T00:19:46.501Z,41.40
2018-06-07T00:22:13.435Z,41.70
2018-06-07T00:24:40.399Z,41.80
2018-06-07T00:27:07.322Z,42.00
2018-06-07T00:29:34.283Z,41.90
2018-06-07T00:32:01.256Z,42.20
2018-06-07T00:34:28.172Z,42.30
2018-06-07T00:36:55.103Z,42.30
2018-06-07T00:39:22.054Z,42.70
2018-06-07T00:41:48.971Z,42.80
2018-06-07T00:44:15.905Z,43.70
2018-06-07T00:46:42.848Z,43.10
2018-06-07T00:49:09.799Z,43.20
2018-06-07T00:51:36.717Z,43.50
2018-06-07T00:54:03.698Z,43.40
2018-06-07T00:56:42.398Z,43.80
2018-06-07T00:59:09.371Z,43.50
2018-06-07T01:01:36.271Z,43.70
2018-06-07T01:04:03.180Z,43.80
2018-06-07T01:06:30.148Z,43.70
2018-06-07T01:08:57.144Z,44.00
2018-06-07T01:11:24.302Z,43.90
2018-06-07T01:13:51.356Z,44.00
2018-06-07T01:16:18.285Z,44.10
2018-06-07T01:18:45.271Z,43.90
2018-06-07T01:21:12.220Z,44.10
2018-06-07T01:23:39.157Z,44.00
2018-06-07T01:26:06.108Z,44.00
2018-06-07T01:28:33.047Z,45.10
2018-06-07T01:31:05.989Z,44.40
2018-06-07T01:33:39.984Z,44.50
2018-06-07T01:36:06.925Z,44.90
2018-06-07T01:38:45.716Z,44.80
2018-06-07T01:41:12.636Z,45.00
2018-06-07T01:43:39.568Z,45.20
2018-06-07T01:46:06.519Z,45.30
2018-06-07T01:48:33.487Z,45.60
2018-06-07T01:51:00.428Z,45.20
2018-06-07T01:53:27.364Z,45.40
2018-06-07T01:55:54.334Z,45.60
2018-06-07T01:58:21.273Z,45.80
2018-06-07T02:00:48.339Z,46.40
2018-06-07T02:03:15.260Z,46.00
2018-06-07T02:05:42.192Z,46.10
2018-06-07T02:08:09.139Z,46.00
2018-06-07T02:10:36.055Z,46.00
2018-06-07T02:13:03.000Z,46.30
2018-06-07T02:15:29.961Z,46.50
2018-06-07T02:17:56.889Z,46.30
2018-06-07T02:20:24.345Z,46.50
2018-06-07T02:22:51.328Z,46.70
2018-06-07T02:25:18.254Z,47.00
2018-06-07T02:27:45.340Z,47.00
2018-06-07T02:30:12.329Z,47.10
2018-06-07T02:32:39.266Z,46.90
2018-06-07T02:35:06.207Z,47.00
2018-06-07T02:37:33.199Z,47.30
2018-06-07T02:40:00.145Z,47.50
2018-06-07T02:42:27.092Z,47.40
2018-06-07T02:44:54.040Z,47.30
2018-06-07T02:47:20.985Z,47.30
2018-06-07T02:49:47.952Z,47.30
2018-06-07T02:52:15.027Z,47.40
2018-06-07T02:54:41.957Z,47.30
2018-06-07T02:57:08.893Z,47.30
2018-06-07T02:59:35.851Z,47.60
2018-06-07T03:02:02.787Z,47.40
2018-06-07T03:04:30.168Z,47.70
2018-06-07T03:06:57.115Z,47.50
2018-06-07T03:09:24.078Z,47.70
2018-06-07T03:11:51.006Z,47.80
2018-06-07T03:14:17.957Z,47.60
2018-06-07T03:16:44.883Z,47.50
2018-06-07T03:19:11.831Z,47.40
2018-06-07T03:21:38.775Z,48.00
2018-06-07T03:24:05.682Z,47.70
2018-06-07T03:26:32.649Z,47.50
2018-06-07T03:28:59.627Z,47.60
2018-06-07T03:33:53.571Z,47.40
2018-06-07T03:36:20.522Z,47.40
2018-06-07T03:38:47.435Z,47.30
2018-06-07T03:41:14.353Z,47.00
2018-06-07T03:43:41.309Z,47.10
2018-06-07T03:46:08.243Z,46.80
2018-06-07T03:48:35.142Z,46.50
2018-06-07T03:51:02.103Z,46.40
2018-06-07T03:53:29.068Z,46.50
2018-06-07T03:55:55.983Z,46.40
2018-06-07T03:58:22.922Z,46.20
2018-06-07T04:00:50.033Z,46.00
2018-06-07T04:03:16.943Z,46.10
2018-06-07T04:05:43.891Z,46.60
2018-06-07T04:08:10.811Z,46.10
2018-06-07T04:10:37.763Z,45.90
2018-06-07T04:13:04.736Z,45.70
2018-06-07T04:15:31.669Z,45.80
2018-06-07T04:17:58.593Z,45.90
2018-06-07T04:20:25.624Z,45.80
2018-06-07T04:22:52.554Z,45.80
2018-06-07T04:25:19.487Z,45.70
2018-06-07T04:27:46.437Z,45.90
2018-06-07T04:30:13.374Z,45.50
2018-06-07T04:32:40.313Z,45.50
2018-06-07T04:35:07.266Z,45.60
2018-06-07T04:37:34.213Z,45.50
2018-06-07T04:40:01.157Z,45.30
2018-06-07T04:42:28.156Z,44.90
2018-06-07T04:44:55.088Z,44.60
2018-06-07T04:47:22.030Z,43.90
2018-06-07T04:49:49.057Z,43.30
2018-06-07T04:52:16.008Z,42.30
2018-06-07T04:54:42.964Z,42.00
2018-06-07T04:57:10.489Z,42.10
2018-06-07T04:59:37.434Z,41.40
2018-06-07T05:02:04.381Z,41.00
2018-06-07T05:04:31.324Z,40.10
2018-06-07T05:06:58.256Z,40.50
2018-06-07T05:09:25.193Z,39.40
2018-06-07T05:11:52.156Z,40.20
2018-06-07T05:14:19.076Z,40.60
2018-06-07T05:16:46.038Z,40.70
2018-06-07T05:19:13.001Z,40.90
2018-06-07T05:21:39.931Z,40.60
2018-06-07T05:24:06.882Z,40.70
2018-06-07T05:26:33.828Z,40.80
2018-06-07T05:29:00.762Z,41.50
2018-06-07T05:31:27.909Z,40.80
2018-06-07T05:33:54.906Z,41.10
2018-06-07T05:36:21.862Z,40.90
2018-06-07T05:38:48.876Z,41.60
2018-06-07T05:41:15.817Z,41.10
2018-06-07T05:43:43.659Z,41.20
2018-06-07T05:46:10.588Z,40.90
2018-06-07T05:48:37.541Z,40.70
2018-06-07T05:51:04.495Z,41.70
2018-06-07T05:53:31.481Z,40.90
2018-06-07T05:55:58.476Z,40.80
2018-06-07T05:58:25.456Z,40.10
2018-06-07T06:00:52.409Z,39.90
2018-06-07T06:03:19.397Z,39.80
2018-06-07T06:05:46.354Z,39.80
2018-06-07T06:13:07.413Z,57.80
2018-06-07T06:15:34.393Z,38.20
2018-06-07T06:18:01.394Z,38.40
2018-06-07T06:20:28.318Z,37.10
2018-06-07T06:22:55.260Z,36.60
2018-06-07T06:25:22.224Z,36.50
2018-06-07T06:27:49.189Z,35.60
2018-06-07T06:30:17.316Z,36.00
2018-06-07T06:32:44.264Z,35.30
2018-06-07T06:35:11.194Z,34.80
2018-06-07T06:38:46.952Z,35.10
2018-06-07T06:41:13.913Z,35.70
2018-06-07T06:43:40.847Z,34.00
2018-06-07T06:46:07.833Z,33.90
2018-06-07T06:48:34.757Z,33.10
2018-06-07T06:51:01.705Z,32.90
2018-06-07T06:53:28.693Z,33.10
2018-06-07T06:55:55.637Z,33.00
2018-06-07T06:58:22.560Z,32.20
2018-06-07T07:00:49.511Z,32.70
2018-06-07T07:03:16.436Z,32.50
2018-06-07T07:05:43.375Z,32.00
2018-06-07T07:08:10.317Z,32.40
2018-06-07T07:10:37.253Z,31.30
2018-06-07T07:13:04.324Z,30.90
2018-06-07T07:17:58.586Z,29.20
2018-06-07T07:20:25.508Z,29.80
2018-06-07T07:22:52.468Z,29.70
2018-06-07T07:25:19.999Z,29.00
2018-06-07T07:27:47.026Z,29.30
2018-06-07T07:30:14.078Z,28.00
2018-06-07T07:32:41.004Z,27.00
2018-06-07T07:35:07.939Z,27.30
2018-06-07T07:37:34.896Z,28.20
2018-06-07T07:40:01.873Z,30.30
2018-06-07T07:42:28.914Z,30.20
2018-06-07T07:44:55.858Z,29.20
2018-06-07T07:47:22.925Z,28.70
2018-06-07T07:49:49.853Z,29.50
2018-06-07T07:52:17.069Z,28.80
2018-06-07T07:54:43.976Z,27.30
2018-06-07T07:57:10.899Z,28.90
2018-06-07T07:59:37.860Z,28.50
2018-06-07T08:02:05.173Z,28.30
2018-06-07T08:04:32.141Z,27.80
2018-06-07T08:06:59.092Z,27.50
2018-06-07T08:09:26.032Z,27.40
2018-06-07T08:11:52.964Z,26.40
2018-06-07T08:14:19.936Z,26.50
2018-06-07T08:16:46.883Z,26.80
2018-06-07T08:19:13.802Z,27.20
2018-06-07T08:21:40.761Z,27.30
2018-06-07T08:24:07.712Z,27.70
2018-06-07T08:26:34.721Z,26.20
2018-06-07T08:29:01.699Z,27.00
2018-06-07T08:31:28.689Z,26.00
2018-06-07T08:33:56.511Z,25.90
2018-06-07T08:36:23.530Z,25.70
2018-06-07T08:38:50.506Z,25.00
2018-06-07T08:41:17.918Z,25.40
2018-06-07T09:18:05.367Z,25.80
2018-06-07T09:20:32.337Z,24.50
2018-06-07T09:27:53.425Z,24.00
2018-06-07T09:35:14.459Z,24.70
2018-06-07T09:40:08.459Z,24.20
2018-06-07T09:45:02.447Z,24.60
2018-06-07T09:47:29.408Z,23.80
2018-06-07T09:49:56.383Z,25.60
2018-06-07T09:52:23.361Z,23.90
2018-06-07T09:54:50.310Z,24.20
2018-06-07T09:57:17.398Z,25.60
2018-06-07T09:59:44.396Z,24.00
2018-06-07T10:02:11.358Z,24.10
2018-06-07T10:04:38.332Z,24.50
2018-06-07T10:07:05.270Z,24.20
2018-06-07T10:09:32.247Z,23.10
2018-06-07T10:11:59.463Z,22.60
2018-06-07T10:14:26.419Z,22.90
2018-06-07T10:16:53.442Z,23.40
2018-06-07T10:19:20.417Z,23.70
2018-06-07T10:21:47.451Z,23.40
2018-06-07T10:24:14.385Z,23.00
2018-06-07T10:26:41.356Z,22.40
2018-06-07T10:29:08.316Z,21.80
2018-06-07T10:31:35.260Z,22.40
2018-06-07T10:34:02.216Z,23.70
2018-06-07T10:36:29.161Z,23.80
2018-06-07T10:38:56.124Z,23.30
2018-06-07T10:41:23.058Z,21.40
2018-06-07T10:43:50.005Z,21.60
2018-06-07T10:46:17.047Z,21.60
2018-06-07T10:48:44.110Z,22.10
2018-06-07T10:51:11.100Z,23.20
2018-06-07T10:53:38.071Z,23.10
2018-06-07T10:56:05.027Z,23.40
2018-06-07T11:18:08.834Z,22.90
2018-06-07T11:20:35.759Z,21.20
2018-06-07T11:23:02.710Z,22.50
2018-06-07T11:25:29.659Z,22.70
2018-06-07T11:35:17.767Z,23.70
2018-06-07T11:37:44.682Z,22.90
2018-06-07T11:40:11.638Z,21.90
2018-06-07T11:42:38.572Z,20.90
2018-06-07T11:45:05.480Z,21.70
2018-06-07T11:47:32.452Z,21.60
2018-06-07T11:49:59.375Z,21.60
2018-06-07T11:52:26.298Z,21.80
2018-06-07T11:54:53.289Z,21.50
2018-06-07T11:57:20.209Z,21.60
2018-06-07T11:59:47.196Z,21.70
2018-06-07T12:02:14.169Z,21.80
2018-06-07T12:04:41.161Z,21.10
2018-06-07T12:07:08.415Z,21.10
2018-06-07T12:09:35.403Z,21.60
2018-06-07T12:12:02.633Z,21.10
2018-06-07T12:14:29.570Z,22.00
2018-06-07T12:16:56.825Z,22.30
2018-06-07T12:19:23.773Z,21.40
2018-06-07T16:29:42.067Z,17.70
2018-06-07T16:37:03.590Z,21.70
2018-06-07T16:39:30.707Z,22.30
2018-06-07T16:41:58.366Z,22.90
2018-06-07T16:44:25.289Z,23.20
2018-06-07T16:46:52.435Z,22.80
2018-06-07T16:49:19.405Z,22.60
2018-06-07T16:51:46.362Z,23.20
2018-06-07T16:54:13.366Z,23.40
2018-06-07T16:56:40.491Z,23.30
2018-06-07T16:59:07.624Z,23.50
2018-06-07T17:01:34.586Z,23.40
2018-06-07T17:04:01.552Z,23.50
2018-06-07T17:06:28.865Z,23.80
2018-06-07T17:08:56.021Z,23.70
2018-06-07T17:11:22.975Z,23.80
2018-06-07T17:13:49.908Z,24.10
2018-06-07T17:16:17.597Z,23.60
2018-06-07T17:18:44.586Z,23.60
2018-06-07T17:21:11.534Z,23.70
2018-06-07T17:23:38.830Z,24.20
2018-06-07T17:26:05.916Z,25.20
2018-06-07T17:28:32.893Z,25.30
2018-06-07T17:31:00.677Z,25.40
2018-06-07T17:33:27.632Z,25.60
2018-06-07T17:35:54.569Z,25.20
2018-06-07T17:38:21.510Z,25.40
2018-06-07T17:40:48.461Z,25.30
2018-06-07T17:43:15.396Z,25.60
2018-06-07T17:45:42.337Z,25.90
2018-06-07T17:48:09.449Z,26.20
2018-06-07T17:50:36.372Z,26.40
2018-06-07T17:53:03.591Z,26.70
2018-06-07T17:55:30.547Z,27.00
2018-06-07T17:57:57.526Z,27.00
2018-06-07T18:00:24.491Z,27.00
2018-06-07T18:02:51.436Z,27.20
2018-06-07T18:05:18.787Z,27.20
2018-06-07T18:07:45.741Z,28.10
2018-06-07T18:10:13.408Z,27.80
2018-06-07T18:12:40.537Z,27.80
2018-06-07T18:15:07.431Z,27.90
2018-06-07T18:17:34.364Z,27.70
2018-06-07T18:20:01.548Z,27.50
2018-06-07T18:22:28.592Z,27.70
2018-06-07T18:24:55.549Z,28.00
2018-06-07T18:27:22.507Z,28.20
2018-06-07T18:29:49.476Z,28.70
2018-06-07T18:32:16.434Z,29.00
2018-06-07T18:34:43.384Z,29.30
2018-06-07T18:37:10.356Z,29.60
2018-06-07T18:39:37.292Z,30.10
2018-06-07T18:42:04.344Z,30.30
2018-06-07T18:44:31.326Z,30.70
2018-06-07T18:46:58.296Z,30.80
2018-06-07T18:49:25.470Z,31.00
2018-06-07T18:51:52.466Z,31.20
2018-06-07T18:54:19.416Z,31.40
2018-06-07T18:56:46.353Z,31.60
2018-06-07T18:59:13.326Z,31.90
2018-06-07T19:01:40.352Z,32.10
2018-06-07T19:04:07.298Z,32.30
2018-06-07T19:06:34.405Z,32.50
2018-06-07T19:09:07.159Z,32.60
2018-06-07T19:11:34.264Z,32.60
2018-06-07T19:14:07.028Z,32.90
2018-06-07T19:16:33.981Z,33.00
2018-06-07T19:19:06.838Z,33.10
2018-06-07T19:21:33.824Z,33.10
2018-06-07T19:24:00.783Z,33.40
2018-06-07T19:26:33.635Z,33.40
2018-06-07T19:29:00.669Z,33.50
2018-06-07T19:31:27.815Z,33.70
2018-06-07T19:34:00.584Z,33.90
2018-06-07T19:36:27.614Z,34.00
2018-06-07T19:39:00.313Z,34.20
2018-06-07T19:41:33.181Z,34.50
2018-06-07T19:44:00.130Z,34.40
2018-06-07T19:46:27.259Z,34.60
2018-06-07T19:48:54.414Z,34.90
2018-06-07T19:51:21.417Z,35.00
2018-06-07T19:56:15.547Z,34.30
2018-06-07T19:58:42.673Z,35.20
2018-06-07T20:01:09.604Z,35.50
2018-06-07T20:03:36.550Z,35.70
2018-06-07T20:06:03.480Z,35.80
2018-06-07T20:08:30.477Z,35.90
2018-06-07T20:10:57.380Z,48.90
2018-06-07T20:15:51.459Z,77.00
2018-06-07T20:18:18.481Z,36.70
2018-06-07T20:20:45.430Z,36.80
2018-06-07T20:23:12.357Z,37.10
2018-06-07T20:25:41.392Z,36.80
2018-06-07T20:28:08.363Z,37.40
2018-06-07T20:30:35.297Z,37.60
2018-06-07T20:33:02.244Z,37.60
2018-06-07T20:35:29.980Z,37.80
2018-06-07T20:37:57.132Z,38.00
2018-06-07T20:40:24.104Z,38.20
2018-06-07T20:42:51.088Z,38.30
2018-06-07T20:45:18.152Z,38.40
2018-06-07T20:47:45.131Z,38.50
2018-06-07T20:50:12.139Z,38.70
2018-06-07T20:52:39.084Z,38.80
2018-06-07T20:55:06.066Z,39.00
2018-06-07T20:57:33.010Z,39.20
2018-06-07T21:00:00.011Z,39.50
2018-06-07T21:02:27.885Z,40.30
2018-06-07T21:04:55.316Z,39.80
2018-06-07T21:07:24.672Z,39.90
2018-06-07T21:09:53.196Z,40.00
2018-06-07T21:12:21.062Z,40.30
2018-06-07T21:14:48.823Z,40.40
2018-06-07T21:17:17.588Z,40.60
2018-06-07T21:19:45.462Z,40.80
2018-06-07T21:22:13.320Z,41.80
2018-06-07T21:24:40.820Z,41.60
2018-06-07T21:27:07.819Z,41.20
2018-06-07T21:29:34.836Z,41.70
2018-06-07T21:32:01.820Z,41.50
2018-06-07T21:34:28.776Z,41.90
2018-06-07T21:36:55.740Z,41.80
2018-06-07T21:39:22.730Z,42.10
2018-06-07T21:41:49.674Z,42.00
2018-06-07T21:44:16.617Z,42.20
2018-06-07T21:46:43.651Z,42.40
2018-06-07T21:49:10.531Z,42.60
2018-06-07T21:51:37.484Z,42.70
2018-06-07T21:54:04.476Z,42.90
2018-06-07T21:56:31.423Z,42.90
2018-06-07T21:58:58.407Z,43.80
2018-06-07T22:01:25.342Z,43.30
2018-06-07T22:03:52.277Z,43.50
2018-06-07T22:06:19.210Z,43.60
2018-06-07T22:08:46.179Z,43.90
2018-06-07T22:11:13.095Z,43.80
2018-06-07T22:13:40.064Z,44.00
2018-06-07T22:16:07.044Z,44.00
2018-06-07T22:18:34.023Z,44.00
2018-06-07T22:21:00.977Z,44.20
2018-06-07T22:23:27.925Z,45.10
2018-06-07T22:25:54.852Z,44.70
2018-06-07T22:28:21.817Z,44.80
2018-06-07T22:30:48.755Z,45.70
2018-06-07T22:33:15.695Z,45.10
2018-06-07T22:35:42.648Z,45.40
2018-06-07T22:38:09.613Z,45.70
2018-06-07T22:40:36.546Z,45.70
2018-06-07T22:43:04.270Z,45.70
2018-06-07T22:45:31.302Z,45.70
2018-06-07T22:47:58.264Z,45.90
2018-06-07T22:50:25.383Z,46.20
2018-06-07T22:52:52.399Z,46.30
2018-06-07T22:55:19.314Z,46.40
2018-06-07T22:57:46.282Z,46.50
2018-06-07T23:00:14.843Z,47.10
2018-06-07T23:02:47.584Z,47.10
2018-06-07T23:05:14.538Z,47.40
2018-06-07T23:07:41.473Z,47.50
2018-06-07T23:10:08.605Z,47.70
2018-06-07T23:12:35.624Z,48.00
2018-06-07T23:15:02.591Z,48.20
2018-06-07T23:17:29.507Z,48.30
2018-06-07T23:19:56.602Z,48.60
2018-06-07T23:22:23.513Z,49.00
2018-06-07T23:24:50.441Z,48.80
2018-06-07T23:27:18.220Z,49.80
2018-06-07T23:29:45.421Z,49.30
2018-06-07T23:32:12.571Z,49.40
2018-06-07T23:34:39.650Z,49.50
2018-06-07T23:37:06.594Z,49.70
2018-06-07T23:39:33.799Z,49.50
2018-06-07T23:42:00.860Z,49.50
2018-06-07T23:44:27.805Z,49.50
2018-06-07T23:46:54.736Z,49.60
2018-06-07T23:49:21.911Z,49.70
2018-06-07T23:51:48.880Z,49.90
2018-06-07T23:54:16.158Z,50.00
2018-06-07T23:56:43.231Z,49.90
2018-06-07T23:59:10.202Z,50.30
